createdAt,value
2022-11-12T00:12:20.300Z,10.95
2022-11-12T00:27:23.041Z,9.20
2022-11-12T00:42:25.013Z,10.65
2022-11-12T00:57:27.023Z,10.45
2022-11-12T01:12:31.572Z,10.18
2022-11-12T01:27:34.663Z,11.23
2022-11-12T01:42:38.743Z,10.27
2022-11-12T01:57:47.720Z,11.27
2022-11-12T02:13:10.358Z,12.23
2022-11-12T02:28:13.020Z,12.32
2022-11-12T02:43:16.300Z,11.63
2022-11-12T02:58:18.316Z,12.93
2022-11-12T03:13:21.318Z,13.50
2022-11-12T03:28:23.361Z,12.70
2022-11-12T03:43:25.798Z,11.18
2022-11-12T03:58:27.974Z,12.25
2022-11-12T04:13:30.200Z,12.57
2022-11-12T04:28:32.240Z,12.80
2022-11-12T04:43:52.481Z,13.52
2022-11-12T04:58:54.424Z,18.10
2022-11-12T05:13:59.479Z,18.55
2022-11-12T05:29:04.939Z,21.55
2022-11-12T05:44:10.240Z,22.10
2022-11-12T05:59:13.638Z,18.27
2022-11-12T06:14:15.598Z,16.10
2022-11-12T06:29:17.476Z,15.07
2022-11-12T06:44:22.299Z,17.25
2022-11-12T06:59:24.578Z,17.20
2022-11-12T07:14:26.526Z,17.83
2022-11-12T07:29:43.071Z,19.00
2022-11-12T07:44:48.820Z,18.60
2022-11-12T07:59:51.023Z,17.67
2022-11-12T08:14:53.061Z,19.63
2022-11-12T08:29:55.001Z,17.55
2022-11-12T08:44:56.941Z,17.50
2022-11-12T08:59:59.204Z,17.25
2022-11-12T09:15:30.730Z,16.25
2022-11-12T09:30:23.975Z,17.15
2022-11-12T09:45:31.541Z,17.95
2022-11-12T10:00:33.680Z,16.30
2022-11-12T10:16:30.982Z,14.05
2022-11-12T10:31:32.920Z,12.90
2022-11-12T10:46:38.779Z,12.23
2022-11-12T11:01:45.565Z,12.43
2022-11-12T11:16:56.861Z,10.68
2022-11-12T11:32:17.138Z,11.43
2022-11-12T11:47:59.454Z,9.57
2022-11-12T12:03:06.598Z,10.52
2022-11-12T12:18:30.244Z,10.25
2022-11-12T12:33:34.877Z,11.10
2022-11-12T12:48:45.460Z,10.95
2022-11-12T13:04:09.008Z,11.70
2022-11-12T13:19:11.078Z,11.02
2022-11-12T13:34:19.802Z,11.45
2022-11-12T13:49:22.260Z,13.55
2022-11-12T14:04:25.421Z,12.25
2022-11-12T14:20:01.282Z,12.48
2022-11-12T14:35:28.305Z,13.98
2022-11-12T14:50:39.235Z,14.52
2022-11-12T15:06:04.241Z,13.10
2022-11-12T15:21:12.366Z,12.75
2022-11-12T15:36:21.458Z,12.88
2022-11-12T15:51:23.879Z,13.15
2022-11-12T16:06:25.940Z,13.68
2022-11-12T16:21:27.881Z,14.98
2022-11-12T16:36:29.999Z,15.85
2022-11-12T16:51:31.966Z,15.52
2022-11-12T17:06:36.964Z,18.55
2022-11-12T17:21:39.021Z,19.48
2022-11-12T17:36:43.821Z,20.52
2022-11-12T17:51:46.023Z,19.13
2022-11-12T18:06:48.251Z,21.85
2022-11-12T18:21:50.279Z,20.55
2022-11-12T18:36:52.299Z,19.10
2022-11-12T18:51:54.382Z,18.23
2022-11-12T19:06:56.423Z,26.48
2022-11-12T19:21:58.454Z,20.00
2022-11-12T19:52:22.699Z,23.63
2022-11-12T20:07:25.409Z,23.35
2022-11-12T20:22:32.054Z,21.88
2022-11-12T20:37:34.500Z,23.80
2022-11-12T20:52:36.420Z,24.00
2022-11-12T21:07:38.461Z,24.98
2022-11-12T21:22:40.401Z,24.00
2022-11-12T21:37:42.359Z,27.00
2022-11-12T21:52:44.280Z,25.20
2022-11-12T22:07:46.360Z,25.55
2022-11-12T22:22:48.299Z,28.27
2022-11-12T22:37:50.200Z,26.50
2022-11-12T22:52:52.124Z,26.20
2022-11-12T23:07:54.078Z,26.58
2022-11-12T23:22:55.981Z,26.38
2022-11-12T23:37:57.925Z,25.48
2022-11-12T23:52:59.861Z,28.70
